createdAt,value
2022-09-20T00:00:35.915Z,25.6
2022-09-20T00:06:14.615Z,25.6
2022-09-20T00:11:35.825Z,25.6
2022-09-20T16:59:33.453Z,29
2022-09-20T17:04:44.281Z,28.9
2022-09-20T17:10:21.828Z,28.9
2022-09-20T17:16:00.107Z,28.8
2022-09-20T17:21:24.129Z,28.8
2022-09-20T17:27:01.335Z,28.6
2022-09-20T17:32:29.273Z,28.6
2022-09-20T17:37:51.962Z,28.6
2022-09-20T17:43:18.894Z,28.6
2022-09-20T17:48:57.343Z,28.5
2022-09-20T17:54:20.883Z,28.4
2022-09-20T17:59:42.791Z,28.4
2022-09-20T18:05:26.042Z,28.4
2022-09-20T18:10:17.830Z,28.4
2022-09-20T18:15:44.984Z,28.3
2022-09-20T18:21:06.951Z,28.3
2022-09-20T18:26:45.392Z,28.3
2022-09-20T18:32:26.706Z,28.3
2022-09-20T18:38:04.709Z,28.3
2022-09-20T18:43:43.073Z,28.3
2022-09-20T18:48:34.750Z,28.2
2022-09-20T18:53:57.461Z,28.3
2022-09-20T18:59:40.500Z,28.2
2022-09-20T19:05:26.201Z,28.2
2022-09-20T19:11:10.495Z,28.1
2022-09-20T19:16:33.138Z,28.1
2022-09-20T19:21:56.402Z,28.1
2022-09-20T19:27:23.113Z,28
2022-09-20T19:32:45.833Z,27.9
2022-09-20T19:38:22.942Z,27.7
2022-09-20T19:44:00.621Z,27.5
2022-09-20T19:49:39.174Z,27.4
2022-09-20T19:55:02.707Z,27.3
2022-09-20T20:00:26.139Z,27.2
2022-09-20T20:05:48.654Z,27.1
2022-09-20T20:11:14.241Z,27.1
2022-09-20T20:16:10.127Z,27
2022-09-20T20:21:32.422Z,27
2022-09-20T20:27:10.859Z,26.9
2022-09-20T20:32:38.965Z,26.9
2022-09-20T20:38:16.421Z,26.9
2022-09-20T20:43:57.295Z,26.9
2022-09-20T20:49:34.091Z,26.8
2022-09-20T20:55:14.013Z,26.8
2022-09-20T21:00:19.661Z,26.8
